createdAt,value
2022-08-23T00:05:09.007Z,46.05
2022-08-23T00:10:14.855Z,45.92
2022-08-23T00:15:21.656Z,45.35
2022-08-23T00:20:25.016Z,45.08
2022-08-23T00:25:28.019Z,45.60
2022-08-23T00:30:32.934Z,45.17
2022-08-23T00:35:38.784Z,44.90
2022-08-23T00:40:42.458Z,45.45
2022-08-23T00:46:10.432Z,45.85
2022-08-23T00:51:17.108Z,45.53
2022-08-23T00:56:23.229Z,45.55
2022-08-23T01:01:28.139Z,45.33
2022-08-23T01:06:44.152Z,45.22
2022-08-23T01:11:52.261Z,45.60
2022-08-23T01:17:01.643Z,45.38
2022-08-23T01:22:12.407Z,44.88
2022-08-23T01:27:16.967Z,45.13
2022-08-23T01:32:20.016Z,46.30
2022-08-23T01:37:23.679Z,45.20
2022-08-23T01:42:28.515Z,45.30
2022-08-23T01:47:31.906Z,44.63
2022-08-23T01:52:35.842Z,45.25
2022-08-23T01:57:42.561Z,45.05
2022-08-23T02:02:48.753Z,45.05
2022-08-23T02:07:51.817Z,44.72
2022-08-23T02:12:56.952Z,45.17
2022-08-23T02:18:01.832Z,45.30
2022-08-23T02:23:05.467Z,45.20
2022-08-23T02:28:10.451Z,44.90
2022-08-23T02:33:13.838Z,45.85
2022-08-23T02:38:18.611Z,45.40
2022-08-23T02:43:23.878Z,44.10
2022-08-23T02:48:27.051Z,44.72
2022-08-23T02:53:38.704Z,44.40
2022-08-23T02:58:45.817Z,43.88
2022-08-23T03:04:00.232Z,44.67
2022-08-23T03:09:07.203Z,44.45
2022-08-23T03:14:12.050Z,43.97
2022-08-23T03:19:15.282Z,43.58
2022-08-23T03:24:18.357Z,43.42
2022-08-23T03:29:22.867Z,43.70
2022-08-23T03:34:38.575Z,43.83
2022-08-23T03:39:44.049Z,43.47
2022-08-23T03:44:48.720Z,44.25
2022-08-23T03:49:59.804Z,43.83
2022-08-23T03:55:03.070Z,43.80
2022-08-23T04:00:12.954Z,43.58
2022-08-23T04:05:20.592Z,43.88
2022-08-23T04:10:26.589Z,44.03
2022-08-23T04:15:33.249Z,43.55
2022-08-23T04:20:37.970Z,43.20
2022-08-23T04:25:43.324Z,43.28
2022-08-23T04:30:47.703Z,43.65
2022-08-23T04:35:51.212Z,43.65
2022-08-23T04:41:14.531Z,43.40
2022-08-23T04:46:20.059Z,43.25
2022-08-23T04:51:23.637Z,43.92
2022-08-23T04:56:26.793Z,42.92
2022-08-23T05:01:31.412Z,43.47
2022-08-23T05:06:34.847Z,42.90
2022-08-23T05:11:37.769Z,43.22
2022-08-23T05:16:42.119Z,43.28
2022-08-23T05:21:46.464Z,45.45
2022-08-23T05:26:50.367Z,43.22
2022-08-23T05:31:54.792Z,43.13
2022-08-23T05:36:59.991Z,43.28
2022-08-23T05:42:22.955Z,43.63
2022-08-23T05:47:28.102Z,43.67
2022-08-23T05:52:53.486Z,44.25
2022-08-23T05:57:56.675Z,45.15
2022-08-23T06:03:01.808Z,44.00
2022-08-23T06:08:05.262Z,43.90
2022-08-23T06:13:08.292Z,44.25
2022-08-23T06:18:13.581Z,43.35
2022-08-23T06:23:17.707Z,44.15
2022-08-23T06:28:25.036Z,45.53
2022-08-23T06:33:30.685Z,44.67
2022-08-23T06:38:52.257Z,44.55
2022-08-23T06:44:15.278Z,44.40
2022-08-23T06:49:34.125Z,44.47
2022-08-23T06:54:38.615Z,44.60
2022-08-23T06:59:49.945Z,45.28
2022-08-23T07:05:09.416Z,44.38
2022-08-23T07:10:31.176Z,45.03
2022-08-23T07:15:34.100Z,48.53
2022-08-23T07:20:40.004Z,45.25
2022-08-23T07:25:43.745Z,45.88
2022-08-23T07:30:50.423Z,45.97
2022-08-23T07:35:54.972Z,46.13
2022-08-23T07:40:58.681Z,46.17
2022-08-23T07:46:04.271Z,45.85
2022-08-23T07:51:12.369Z,45.60
2022-08-23T07:56:18.244Z,46.15
2022-08-23T08:01:50.699Z,45.25
2022-08-23T08:07:17.733Z,45.03
2022-08-23T08:12:20.924Z,45.38
2022-08-23T08:17:27.643Z,46.67
2022-08-23T08:23:07.255Z,44.97
2022-08-23T08:28:33.132Z,44.78
2022-08-23T08:33:36.268Z,45.17
2022-08-23T08:38:50.300Z,45.22
2022-08-23T08:44:04.723Z,44.67
2022-08-23T08:49:14.833Z,44.60
2022-08-23T08:54:24.009Z,44.50
2022-08-23T08:59:35.752Z,46.45
2022-08-23T09:04:39.005Z,45.03
2022-08-23T09:10:25.317Z,45.30
2022-08-23T09:15:49.383Z,45.25
2022-08-23T09:20:56.404Z,47.53
2022-08-23T09:26:05.094Z,44.95
2022-08-23T09:31:35.966Z,44.85
2022-08-23T09:36:40.183Z,44.75
2022-08-23T09:41:46.067Z,45.83
2022-08-23T09:46:49.066Z,45.42
2022-08-23T09:51:58.341Z,45.47
2022-08-23T09:57:05.946Z,46.08
2022-08-23T10:02:18.523Z,45.92
2022-08-23T10:07:30.113Z,45.83
2022-08-23T10:12:34.881Z,45.83
2022-08-23T10:17:46.359Z,45.05
2022-08-23T10:22:56.493Z,45.33
2022-08-23T10:28:39.473Z,45.50
2022-08-23T10:33:47.936Z,46.00
2022-08-23T10:38:57.753Z,45.97
2022-08-23T10:44:20.841Z,46.22
2022-08-23T10:49:28.478Z,45.65
2022-08-23T10:54:46.055Z,47.17
2022-08-23T10:59:53.750Z,45.80
2022-08-23T11:05:09.204Z,45.97
2022-08-23T11:10:17.382Z,45.65
2022-08-23T11:15:34.973Z,46.03
2022-08-23T11:27:06.774Z,45.50
2022-08-23T11:32:34.583Z,45.90
2022-08-23T11:37:59.844Z,47.30
2022-08-23T11:43:13.886Z,46.72
2022-08-23T11:48:24.670Z,46.13
2022-08-23T11:53:42.404Z,46.47
2022-08-23T11:59:08.801Z,46.08
2022-08-23T12:04:31.781Z,46.13
2022-08-23T12:09:59.076Z,47.00
2022-08-23T12:15:07.634Z,46.03
2022-08-23T12:20:16.792Z,46.30
2022-08-23T12:25:30.674Z,46.78
2022-08-23T12:30:42.438Z,46.38
2022-08-23T12:35:56.232Z,46.85
2022-08-23T12:41:00.263Z,46.42
2022-08-23T12:46:29.400Z,50.78
2022-08-23T12:51:39.979Z,47.05
2022-08-23T12:56:47.601Z,47.05
2022-08-23T13:01:50.782Z,46.67
2022-08-23T13:06:59.436Z,46.63
2022-08-23T13:12:03.359Z,46.67
2022-08-23T13:17:19.443Z,46.75
2022-08-23T13:22:26.086Z,46.53
2022-08-23T13:27:36.557Z,46.80
2022-08-23T13:32:44.393Z,48.58
2022-08-23T13:37:48.847Z,46.42
2022-08-23T13:42:56.895Z,47.38
2022-08-23T13:48:03.062Z,46.55
2022-08-23T13:53:16.717Z,47.17
2022-08-23T13:58:28.306Z,46.10
2022-08-23T14:03:32.449Z,46.38
2022-08-23T14:08:42.695Z,46.28
2022-08-23T14:13:48.625Z,46.47
2022-08-23T14:24:18.511Z,47.13
2022-08-23T14:29:22.765Z,47.75
2022-08-23T14:34:26.880Z,46.67
2022-08-23T14:39:32.660Z,46.95
2022-08-23T14:44:38.583Z,46.78
2022-08-23T14:49:41.644Z,46.83
2022-08-23T14:54:47.400Z,46.65
2022-08-23T14:59:50.353Z,46.72
2022-08-23T15:04:53.715Z,46.85
2022-08-23T15:09:58.056Z,47.08
2022-08-23T15:15:02.928Z,47.85
2022-08-23T15:20:07.166Z,47.13
2022-08-23T15:25:11.741Z,47.08
2022-08-23T15:30:22.017Z,49.20
2022-08-23T15:35:25.994Z,47.00
2022-08-23T15:40:30.627Z,46.95
2022-08-23T15:45:43.713Z,47.22
2022-08-23T15:50:48.069Z,47.30
2022-08-23T15:55:53.191Z,48.00
2022-08-23T16:01:03.317Z,47.38
2022-08-23T16:06:21.682Z,46.38
2022-08-23T16:11:28.133Z,47.20
2022-08-23T16:16:35.000Z,46.88
2022-08-23T16:21:38.428Z,47.70
2022-08-23T16:26:46.343Z,47.22
2022-08-23T16:31:49.835Z,47.08
2022-08-23T16:36:57.533Z,47.58
2022-08-23T16:42:21.326Z,46.45
2022-08-23T16:47:24.428Z,46.65
2022-08-23T16:52:34.615Z,46.58
2022-08-23T16:57:40.428Z,46.33
2022-08-23T17:02:44.777Z,47.53
2022-08-23T17:07:49.246Z,47.33
2022-08-23T17:12:56.212Z,47.22
2022-08-23T17:18:00.791Z,47.78
2022-08-23T17:23:05.616Z,46.25
2022-08-23T17:28:10.331Z,47.03
2022-08-23T17:33:13.291Z,46.95
2022-08-23T17:38:16.352Z,47.15
2022-08-23T17:43:20.658Z,46.83
2022-08-23T17:48:29.888Z,46.63
2022-08-23T17:53:45.155Z,46.50
2022-08-23T17:58:49.997Z,46.72
2022-08-23T18:03:53.003Z,46.40
2022-08-23T18:09:06.391Z,46.80
2022-08-23T18:14:11.201Z,47.08
2022-08-23T18:19:14.355Z,46.53
2022-08-23T18:24:17.605Z,46.55
2022-08-23T18:29:22.097Z,46.65
2022-08-23T18:34:25.133Z,46.08
2022-08-23T18:39:32.188Z,46.63
2022-08-23T18:44:36.940Z,46.10
2022-08-23T18:49:40.156Z,46.08
2022-08-23T18:54:43.192Z,46.40
2022-08-23T18:59:47.467Z,46.15
2022-08-23T19:04:50.487Z,46.20
2022-08-23T19:09:53.460Z,46.55
2022-08-23T19:15:00.870Z,46.20
2022-08-23T19:20:05.047Z,45.85
2022-08-23T19:25:08.932Z,46.28
2022-08-23T19:30:17.661Z,45.95
2022-08-23T19:35:21.118Z,46.00
2022-08-23T19:40:24.325Z,46.33
2022-08-23T19:45:29.522Z,46.75
2022-08-23T19:50:56.906Z,46.85
2022-08-23T19:56:02.848Z,45.63
2022-08-23T20:01:25.708Z,49.30
2022-08-23T20:06:29.198Z,46.28
2022-08-23T20:11:32.499Z,46.35
2022-08-23T20:16:37.805Z,45.97
2022-08-23T20:21:44.194Z,45.45
2022-08-23T20:26:50.930Z,45.78
2022-08-23T20:31:57.344Z,45.72
2022-08-23T20:37:00.353Z,45.80
2022-08-23T20:42:04.457Z,47.15
2022-08-23T20:47:12.825Z,44.90
2022-08-23T20:52:16.652Z,45.45
2022-08-23T20:57:19.668Z,46.28
2022-08-23T21:02:23.987Z,44.60
2022-08-23T21:07:27.962Z,45.63
2022-08-23T21:12:31.093Z,46.13
2022-08-23T21:17:35.673Z,44.60
2022-08-23T21:22:38.669Z,45.65
2022-08-23T21:27:41.633Z,44.95
2022-08-23T21:32:45.972Z,45.53
2022-08-23T21:37:49.014Z,44.92
2022-08-23T21:42:52.008Z,47.05
2022-08-23T21:47:56.519Z,45.72
2022-08-23T21:52:59.458Z,45.30
2022-08-23T21:58:02.367Z,45.20
2022-08-23T22:03:07.045Z,45.03
2022-08-23T22:08:14.320Z,45.03
2022-08-23T22:13:17.627Z,45.47
2022-08-23T22:18:21.919Z,45.08
2022-08-23T22:23:26.370Z,44.85
2022-08-23T22:28:32.333Z,44.63
2022-08-23T22:33:37.045Z,45.08
2022-08-23T22:38:40.098Z,45.30
2022-08-23T22:43:43.072Z,45.92
2022-08-23T22:48:48.331Z,45.65
2022-08-23T22:53:53.494Z,44.92
2022-08-23T22:58:57.216Z,45.03
2022-08-23T23:04:03.055Z,45.20
2022-08-23T23:09:08.381Z,44.78
2022-08-23T23:14:12.252Z,45.13
2022-08-23T23:19:34.169Z,45.42
2022-08-23T23:24:40.640Z,45.05
2022-08-23T23:29:43.585Z,44.97
2022-08-23T23:34:48.075Z,44.65
2022-08-23T23:39:51.056Z,44.75
2022-08-23T23:44:53.988Z,45.00
2022-08-23T23:49:58.682Z,44.83
2022-08-23T23:55:03.500Z,44.45
